sensor_id;sensor_type;location;lat;lon;timestamp;pressure;altitude;pressure_sealevel;temperature;humidity
30081;BME280;16902;50.816;12.828;2023-02-11T00:02:15;99372.50;;;-0.46;100.00
30081;BME280;16902;50.816;12.828;2023-02-11T00:07:17;99377.63;;;-0.46;100.00
30081;BME280;16902;50.816;12.828;2023-02-11T00:12:19;99377.41;;;-0.41;100.00
30081;BME280;16902;50.816;12.828;2023-02-11T00:17:21;99367.50;;;-0.30;100.00
30081;BME280;16902;50.816;12.828;2023-02-11T00:22:23;99375.94;;;-0.28;100.00
30081;BME280;16902;50.816;12.828;2023-02-11T00:27:25;99367.22;;;-0.24;100.00
30081;BME280;16902;50.816;12.828;2023-02-11T00:32:27;99365.50;;;-0.23;100.00
30081;BME280;16902;50.816;12.828;2023-02-11T00:37:28;99357.94;;;-0.27;100.00
30081;BME280;16902;50.816;12.828;2023-02-11T00:42:30;99345.84;;;-0.23;100.00
30081;BME280;16902;50.816;12.828;2023-02-11T00:47:32;99328.59;;;-0.19;100.00
30081;BME280;16902;50.816;12.828;2023-02-11T00:52:34;99329.22;;;-0.14;100.00
30081;BME280;16902;50.816;12.828;2023-02-11T00:57:36;99318.72;;;-0.10;100.00
30081;BME280;16902;50.816;12.828;2023-02-11T01:02:41;99298.72;;;-0.02;100.00
30081;BME280;16902;50.816;12.828;2023-02-11T01:07:44;99279.84;;;0.01;100.00
30081;BME280;16902;50.816;12.828;2023-02-11T01:12:46;99277.03;;;0.06;100.00
30081;BME280;16902;50.816;12.828;2023-02-11T01:17:47;99273.81;;;0.02;100.00
30081;BME280;16902;50.816;12.828;2023-02-11T01:22:49;99269.50;;;0.03;100.00
30081;BME280;16902;50.816;12.828;2023-02-11T01:27:51;99275.44;;;0.03;100.00
30081;BME280;16902;50.816;12.828;2023-02-11T01:32:53;99288.13;;;0.06;100.00
30081;BME280;16902;50.816;12.828;2023-02-11T01:37:55;99282.69;;;0.12;100.00
30081;BME280;16902;50.816;12.828;2023-02-11T01:42:58;99268.69;;;0.19;100.00
30081;BME280;16902;50.816;12.828;2023-02-11T01:48:01;99247.94;;;0.24;100.00
30081;BME280;16902;50.816;12.828;2023-02-11T01:53:03;99260.50;;;0.29;100.00
30081;BME280;16902;50.816;12.828;2023-02-11T01:58:24;99233.19;;;0.29;100.00
30081;BME280;16902;50.816;12.828;2023-02-11T02:03:27;99232.03;;;0.35;100.00
30081;BME280;16902;50.816;12.828;2023-02-11T02:08:52;99227.75;;;0.35;100.00
30081;BME280;16902;50.816;12.828;2023-02-11T02:13:56;99235.75;;;0.29;100.00
30081;BME280;16902;50.816;12.828;2023-02-11T02:40:45;99226.38;;;0.77;100.00
30081;BME280;16902;50.816;12.828;2023-02-11T02:45:48;99204.31;;;0.74;100.00
30081;BME280;16902;50.816;12.828;2023-02-11T02:50:55;99218.44;;;0.82;100.00
30081;BME280;16902;50.816;12.828;2023-02-11T03:02:04;99218.22;;;1.02;100.00
30081;BME280;16902;50.816;12.828;2023-02-11T03:07:20;99222.75;;;1.13;100.00
30081;BME280;16902;50.816;12.828;2023-02-11T03:12:25;99209.56;;;1.19;100.00
30081;BME280;16902;50.816;12.828;2023-02-11T03:17:29;99199.47;;;1.16;100.00
30081;BME280;16902;50.816;12.828;2023-02-11T03:22:41;99180.69;;;1.15;100.00
30081;BME280;16902;50.816;12.828;2023-02-11T03:27:53;99165.97;;;1.19;100.00
30081;BME280;16902;50.816;12.828;2023-02-11T03:33:08;99175.97;;;1.23;100.00
30081;BME280;16902;50.816;12.828;2023-02-11T03:38:22;99169.75;;;1.27;100.00
30081;BME280;16902;50.816;12.828;2023-02-11T03:43:36;99155.19;;;1.28;100.00
30081;BME280;16902;50.816;12.828;2023-02-11T03:48:45;99146.78;;;1.26;100.00
30081;BME280;16902;50.816;12.828;2023-02-11T03:53:51;99143.94;;;1.31;100.00
30081;BME280;16902;50.816;12.828;2023-02-11T03:58:55;99149.53;;;1.37;100.00
30081;BME280;16902;50.816;12.828;2023-02-11T04:03:57;99160.94;;;1.47;100.00
30081;BME280;16902;50.816;12.828;2023-02-11T04:08:59;99164.78;;;1.54;100.00
30081;BME280;16902;50.816;12.828;2023-02-11T04:14:01;99172.97;;;1.61;100.00
30081;BME280;16902;50.816;12.828;2023-02-11T04:19:03;99156.81;;;1.59;100.00
30081;BME280;16902;50.816;12.828;2023-02-11T04:24:05;99149.88;;;1.61;100.00
30081;BME280;16902;50.816;12.828;2023-02-11T04:29:07;99141.34;;;1.61;100.00
30081;BME280;16902;50.816;12.828;2023-02-11T04:34:09;99140.78;;;1.56;100.00
30081;BME280;16902;50.816;12.828;2023-02-11T04:39:11;99135.28;;;1.47;100.00
30081;BME280;16902;50.816;12.828;2023-02-11T04:44:13;99123.34;;;1.46;100.00
30081;BME280;16902;50.816;12.828;2023-02-11T04:49:15;99141.97;;;1.50;100.00
30081;BME280;16902;50.816;12.828;2023-02-11T04:54:17;99142.88;;;1.49;100.00
30081;BME280;16902;50.816;12.828;2023-02-11T04:59:20;99141.97;;;1.50;100.00
30081;BME280;16902;50.816;12.828;2023-02-11T05:04:22;99155.53;;;1.52;100.00
30081;BME280;16902;50.816;12.828;2023-02-11T05:09:24;99162.06;;;1.58;100.00
30081;BME280;16902;50.816;12.828;2023-02-11T05:14:26;99145.66;;;1.60;100.00
30081;BME280;16902;50.816;12.828;2023-02-11T05:19:28;99164.63;;;1.58;100.00
30081;BME280;16902;50.816;12.828;2023-02-11T05:24:33;99162.88;;;1.58;100.00
30081;BME280;16902;50.816;12.828;2023-02-11T05:29:35;99164.34;;;1.62;100.00
30081;BME280;16902;50.816;12.828;2023-02-11T05:34:37;99148.78;;;1.65;100.00
30081;BME280;16902;50.816;12.828;2023-02-11T05:39:39;99152.84;;;1.69;100.00
30081;BME280;16902;50.816;12.828;2023-02-11T05:44:41;99149.91;;;1.75;100.00
30081;BME280;16902;50.816;12.828;2023-02-11T05:49:43;99160.72;;;1.80;100.00
30081;BME280;16902;50.816;12.828;2023-02-11T05:54:44;99158.25;;;1.79;100.00
30081;BME280;16902;50.816;12.828;2023-02-11T05:59:46;99147.97;;;1.79;100.00
30081;BME280;16902;50.816;12.828;2023-02-11T06:04:48;99152.09;;;1.82;100.00
30081;BME280;16902;50.816;12.828;2023-02-11T06:09:50;99157.22;;;1.82;100.00
30081;BME280;16902;50.816;12.828;2023-02-11T06:14:52;99157.34;;;1.80;100.00
30081;BME280;16902;50.816;12.828;2023-02-11T06:19:54;99144.50;;;1.80;100.00
30081;BME280;16902;50.816;12.828;2023-02-11T06:24:56;99148.81;;;1.79;100.00
30081;BME280;16902;50.816;12.828;2023-02-11T06:30:04;99155.38;;;1.84;100.00
30081;BME280;16902;50.816;12.828;2023-02-11T06:35:06;99151.72;;;1.88;100.00
30081;BME280;16902;50.816;12.828;2023-02-11T06:40:11;99142.09;;;1.91;100.00
30081;BME280;16902;50.816;12.828;2023-02-11T06:45:13;99149.16;;;1.88;100.00
30081;BME280;16902;50.816;12.828;2023-02-11T06:50:15;99147.41;;;1.88;100.00
30081;BME280;16902;50.816;12.828;2023-02-11T06:55:17;99147.50;;;1.87;100.00
30081;BME280;16902;50.816;12.828;2023-02-11T07:00:19;99138.88;;;1.88;100.00
30081;BME280;16902;50.816;12.828;2023-02-11T07:05:21;99137.78;;;1.92;100.00
30081;BME280;16902;50.816;12.828;2023-02-11T07:10:23;99133.59;;;1.91;100.00
30081;BME280;16902;50.816;12.828;2023-02-11T07:15:25;99141.19;;;1.92;100.00
30081;BME280;16902;50.816;12.828;2023-02-11T07:20:27;99141.13;;;1.94;100.00
30081;BME280;16902;50.816;12.828;2023-02-11T07:25:29;99137.53;;;1.96;100.00
30081;BME280;16902;50.816;12.828;2023-02-11T07:30:30;99146.06;;;1.97;100.00
30081;BME280;16902;50.816;12.828;2023-02-11T07:35:32;99151.13;;;1.98;100.00
30081;BME280;16902;50.816;12.828;2023-02-11T07:40:35;99143.97;;;2.03;100.00
30081;BME280;16902;50.816;12.828;2023-02-11T07:45:37;99141.13;;;2.08;100.00
30081;BME280;16902;50.816;12.828;2023-02-11T07:50:39;99141.47;;;2.16;100.00
30081;BME280;16902;50.816;12.828;2023-02-11T07:55:42;99144.41;;;2.24;100.00
30081;BME280;16902;50.816;12.828;2023-02-11T08:00:44;99146.50;;;2.32;100.00
30081;BME280;16902;50.816;12.828;2023-02-11T08:05:46;99150.00;;;2.17;100.00
30081;BME280;16902;50.816;12.828;2023-02-11T08:10:48;99147.44;;;2.17;100.00
30081;BME280;16902;50.816;12.828;2023-02-11T08:15:50;99141.94;;;2.23;100.00
30081;BME280;16902;50.816;12.828;2023-02-11T08:20:52;99149.16;;;2.16;100.00
30081;BME280;16902;50.816;12.828;2023-02-11T08:25:54;99145.59;;;2.04;100.00
30081;BME280;16902;50.816;12.828;2023-02-11T08:30:56;99145.94;;;2.13;100.00
30081;BME280;16902;50.816;12.828;2023-02-11T08:35:58;99134.94;;;2.25;100.00
30081;BME280;16902;50.816;12.828;2023-02-11T08:41:00;99142.53;;;2.41;100.00
30081;BME280;16902;50.816;12.828;2023-02-11T08:46:02;99133.53;;;2.48;100.00
30081;BME280;16902;50.816;12.828;2023-02-11T08:51:07;99132.22;;;2.55;100.00
30081;BME280;16902;50.816;12.828;2023-02-11T08:56:10;99131.50;;;2.53;100.00
30081;BME280;16902;50.816;12.828;2023-02-11T09:01:23;99148.75;;;2.51;100.00
30081;BME280;16902;50.816;12.828;2023-02-11T09:06:26;99144.50;;;2.64;100.00
30081;BME280;16902;50.816;12.828;2023-02-11T09:11:33;99151.81;;;2.84;100.00
30081;BME280;16902;50.816;12.828;2023-02-11T09:16:35;99150.63;;;2.90;100.00
30081;BME280;16902;50.816;12.828;2023-02-11T09:21:37;99150.41;;;2.93;100.00
30081;BME280;16902;50.816;12.828;2023-02-11T09:26:41;99153.50;;;2.98;100.00
30081;BME280;16902;50.816;12.828;2023-02-11T09:31:43;99157.66;;;3.01;100.00
30081;BME280;16902;50.816;12.828;2023-02-11T09:36:45;99183.13;;;2.91;100.00
30081;BME280;16902;50.816;12.828;2023-02-11T09:47:32;99190.09;;;2.89;100.00
30081;BME280;16902;50.816;12.828;2023-02-11T09:52:37;99198.47;;;2.93;100.00
30081;BME280;16902;50.816;12.828;2023-02-11T09:57:40;99215.81;;;2.89;100.00
30081;BME280;16902;50.816;12.828;2023-02-11T10:08:08;99215.34;;;2.97;100.00
30081;BME280;16902;50.816;12.828;2023-02-11T10:13:53;99211.81;;;3.12;100.00
30081;BME280;16902;50.816;12.828;2023-02-11T10:24:13;99201.28;;;3.02;100.00
30081;BME280;16902;50.816;12.828;2023-02-11T10:34:40;99195.25;;;3.16;100.00
30081;BME280;16902;50.816;12.828;2023-02-11T10:39:43;99184.31;;;3.40;100.00
30081;BME280;16902;50.816;12.828;2023-02-11T10:45:04;99180.00;;;3.53;100.00
30081;BME280;16902;50.816;12.828;2023-02-11T10:50:29;99157.66;;;3.41;100.00
30081;BME280;16902;50.816;12.828;2023-02-11T10:55:31;99155.03;;;3.68;100.00
30081;BME280;16902;50.816;12.828;2023-02-11T11:00:39;99154.50;;;4.01;100.00
30081;BME280;16902;50.816;12.828;2023-02-11T11:05:58;99159.97;;;4.22;100.00
30081;BME280;16902;50.816;12.828;2023-02-11T11:11:06;99175.84;;;4.03;100.00
30081;BME280;16902;50.816;12.828;2023-02-11T11:21:27;99185.44;;;3.88;100.00
30081;BME280;16902;50.816;12.828;2023-02-11T11:26:46;99168.63;;;3.95;100.00
30081;BME280;16902;50.816;12.828;2023-02-11T11:31:50;99169.44;;;3.96;100.00
30081;BME280;16902;50.816;12.828;2023-02-11T11:36:54;99181.06;;;3.76;100.00
30081;BME280;16902;50.816;12.828;2023-02-11T11:41:57;99168.94;;;3.78;100.00
30081;BME280;16902;50.816;12.828;2023-02-11T11:47:20;99155.03;;;3.93;100.00
30081;BME280;16902;50.816;12.828;2023-02-11T11:52:45;99157.38;;;4.09;100.00
30081;BME280;16902;50.816;12.828;2023-02-11T11:57:49;99159.22;;;4.20;100.00
30081;BME280;16902;50.816;12.828;2023-02-11T12:35:01;99171.31;;;4.06;100.00
30081;BME280;16902;50.816;12.828;2023-02-11T12:45:37;99176.13;;;3.85;100.00
30081;BME280;16902;50.816;12.828;2023-02-11T12:55:56;99164.31;;;3.83;100.00
30081;BME280;16902;50.816;12.828;2023-02-11T13:01:04;99153.47;;;3.91;100.00
30081;BME280;16902;50.816;12.828;2023-02-11T13:06:10;99143.16;;;3.91;100.00
30081;BME280;16902;50.816;12.828;2023-02-11T13:11:22;99150.06;;;3.90;100.00
30081;BME280;16902;50.816;12.828;2023-02-11T13:16:35;99141.72;;;3.86;100.00
30081;BME280;16902;50.816;12.828;2023-02-11T13:21:50;99141.13;;;3.83;100.00
30081;BME280;16902;50.816;12.828;2023-02-11T13:27:06;99147.81;;;3.85;100.00
30081;BME280;16902;50.816;12.828;2023-02-11T13:32:12;99146.34;;;3.81;100.00
30081;BME280;16902;50.816;12.828;2023-02-11T13:37:24;99142.88;;;3.82;100.00
30081;BME280;16902;50.816;12.828;2023-02-11T13:42:29;99155.13;;;3.79;100.00
30081;BME280;16902;50.816;12.828;2023-02-11T13:47:34;99148.22;;;3.79;100.00
30081;BME280;16902;50.816;12.828;2023-02-11T13:52:38;99140.50;;;3.79;100.00
30081;BME280;16902;50.816;12.828;2023-02-11T13:57:40;99134.63;;;3.77;100.00
30081;BME280;16902;50.816;12.828;2023-02-11T14:02:42;99146.47;;;3.80;100.00
30081;BME280;16902;50.816;12.828;2023-02-11T14:13:35;99139.16;;;3.74;100.00
30081;BME280;16902;50.816;12.828;2023-02-11T14:23:45;99140.69;;;3.76;100.00
30081;BME280;16902;50.816;12.828;2023-02-11T14:28:57;99139.97;;;3.74;100.00
30081;BME280;16902;50.816;12.828;2023-02-11T14:39:45;99146.13;;;3.72;100.00
30081;BME280;16902;50.816;12.828;2023-02-11T14:45:02;99148.72;;;3.72;100.00
30081;BME280;16902;50.816;12.828;2023-02-11T14:50:06;99162.63;;;3.69;100.00
30081;BME280;16902;50.816;12.828;2023-02-11T14:55:28;99161.19;;;3.65;100.00
30081;BME280;16902;50.816;12.828;2023-02-11T15:00:30;99152.53;;;3.66;100.00
30081;BME280;16902;50.816;12.828;2023-02-11T15:05:32;99159.53;;;3.64;100.00
30081;BME280;16902;50.816;12.828;2023-02-11T15:10:40;99159.53;;;3.64;100.00
30081;BME280;16902;50.816;12.828;2023-02-11T15:15:44;99157.69;;;3.66;100.00
30081;BME280;16902;50.816;12.828;2023-02-11T15:20:48;99162.31;;;3.61;100.00
30081;BME280;16902;50.816;12.828;2023-02-11T15:25:51;99170.34;;;3.56;100.00
30081;BME280;16902;50.816;12.828;2023-02-11T15:31:14;99168.59;;;3.57;100.00
30081;BME280;16902;50.816;12.828;2023-02-11T15:36:18;99177.88;;;3.59;100.00
30081;BME280;16902;50.816;12.828;2023-02-11T15:41:47;99187.06;;;3.64;100.00
30081;BME280;16902;50.816;12.828;2023-02-11T15:46:49;99181.78;;;3.65;100.00
30081;BME280;16902;50.816;12.828;2023-02-11T15:51:53;99183.44;;;3.66;100.00
30081;BME280;16902;50.816;12.828;2023-02-11T15:57:02;99176.44;;;3.68;100.00
30081;BME280;16902;50.816;12.828;2023-02-11T16:02:31;99178.91;;;3.70;100.00
30081;BME280;16902;50.816;12.828;2023-02-11T16:07:45;99178.28;;;3.66;100.00
30081;BME280;16902;50.816;12.828;2023-02-11T16:18:26;99188.41;;;3.69;100.00
30081;BME280;16902;50.816;12.828;2023-02-11T16:23:40;99200.44;;;3.69;100.00
30081;BME280;16902;50.816;12.828;2023-02-11T16:28:45;99200.53;;;3.67;100.00
30081;BME280;16902;50.816;12.828;2023-02-11T16:33:47;99203.09;;;3.67;100.00
30081;BME280;16902;50.816;12.828;2023-02-11T16:38:49;99200.22;;;3.59;100.00
30081;BME280;16902;50.816;12.828;2023-02-11T16:43:55;99209.69;;;3.58;100.00
30081;BME280;16902;50.816;12.828;2023-02-11T16:49:03;99215.16;;;3.67;100.00
30081;BME280;16902;50.816;12.828;2023-02-11T16:54:13;99219.41;;;3.68;100.00
30081;BME280;16902;50.816;12.828;2023-02-11T16:59:15;99233.00;;;3.70;100.00
30081;BME280;16902;50.816;12.828;2023-02-11T17:04:25;99221.34;;;3.64;100.00
30081;BME280;16902;50.816;12.828;2023-02-11T17:09:27;99230.19;;;3.60;100.00
30081;BME280;16902;50.816;12.828;2023-02-11T17:14:31;99233.03;;;3.43;100.00
30081;BME280;16902;50.816;12.828;2023-02-11T17:19:33;99239.88;;;3.29;100.00
30081;BME280;16902;50.816;12.828;2023-02-11T17:24:35;99236.53;;;3.15;100.00
30081;BME280;16902;50.816;12.828;2023-02-11T17:29:37;99245.13;;;3.01;100.00
30081;BME280;16902;50.816;12.828;2023-02-11T17:34:39;99251.75;;;2.91;100.00
30081;BME280;16902;50.816;12.828;2023-02-11T17:39:41;99259.81;;;2.84;100.00
30081;BME280;16902;50.816;12.828;2023-02-11T17:44:43;99254.13;;;2.79;100.00
30081;BME280;16902;50.816;12.828;2023-02-11T17:49:45;99267.19;;;2.76;100.00
30081;BME280;16902;50.816;12.828;2023-02-11T17:54:47;99252.88;;;2.72;100.00
30081;BME280;16902;50.816;12.828;2023-02-11T17:59:48;99261.50;;;2.71;100.00
30081;BME280;16902;50.816;12.828;2023-02-11T18:04:50;99267.66;;;2.69;100.00
30081;BME280;16902;50.816;12.828;2023-02-11T18:09:53;99272.41;;;2.75;100.00
30081;BME280;16902;50.816;12.828;2023-02-11T18:14:55;99260.31;;;2.77;100.00
30081;BME280;16902;50.816;12.828;2023-02-11T18:19:58;99255.25;;;2.75;100.00
30081;BME280;16902;50.816;12.828;2023-02-11T18:25:00;99261.22;;;2.76;100.00
30081;BME280;16902;50.816;12.828;2023-02-11T18:30:03;99258.47;;;2.79;100.00
30081;BME280;16902;50.816;12.828;2023-02-11T18:35:07;99266.00;;;2.82;100.00
30081;BME280;16902;50.816;12.828;2023-02-11T18:40:15;99275.19;;;2.86;100.00
30081;BME280;16902;50.816;12.828;2023-02-11T18:45:17;99268.38;;;2.85;100.00
30081;BME280;16902;50.816;12.828;2023-02-11T18:50:19;99274.38;;;2.86;100.00
30081;BME280;16902;50.816;12.828;2023-02-11T18:55:22;99278.56;;;2.87;100.00
30081;BME280;16902;50.816;12.828;2023-02-11T19:00:26;99282.78;;;2.88;100.00
30081;BME280;16902;50.816;12.828;2023-02-11T19:05:28;99297.22;;;2.90;100.00
30081;BME280;16902;50.816;12.828;2023-02-11T19:10:34;99301.63;;;2.88;100.00
30081;BME280;16902;50.816;12.828;2023-02-11T19:15:45;99310.81;;;2.92;100.00
30081;BME280;16902;50.816;12.828;2023-02-11T19:20:47;99310.09;;;2.90;100.00
30081;BME280;16902;50.816;12.828;2023-02-11T19:25:49;99311.81;;;2.90;100.00
30081;BME280;16902;50.816;12.828;2023-02-11T19:30:52;99319.53;;;2.90;100.00
30081;BME280;16902;50.816;12.828;2023-02-11T19:35:54;99328.00;;;2.92;100.00
30081;BME280;16902;50.816;12.828;2023-02-11T19:41:02;99337.25;;;2.94;100.00
30081;BME280;16902;50.816;12.828;2023-02-11T19:46:04;99346.72;;;2.94;100.00
30081;BME280;16902;50.816;12.828;2023-02-11T19:51:07;99353.78;;;3.04;100.00
30081;BME280;16902;50.816;12.828;2023-02-11T19:56:14;99358.94;;;3.04;100.00
30081;BME280;16902;50.816;12.828;2023-02-11T20:01:18;99363.19;;;3.05;100.00
30081;BME280;16902;50.816;12.828;2023-02-11T20:06:23;99378.25;;;3.12;100.00
30081;BME280;16902;50.816;12.828;2023-02-11T20:11:27;99390.94;;;3.15;100.00
30081;BME280;16902;50.816;12.828;2023-02-11T20:16:30;99382.34;;;3.14;100.00
30081;BME280;16902;50.816;12.828;2023-02-11T20:21:52;99397.81;;;3.14;100.00
30081;BME280;16902;50.816;12.828;2023-02-11T20:26:56;99405.53;;;3.14;100.00
30081;BME280;16902;50.816;12.828;2023-02-11T20:31:58;99415.53;;;3.19;100.00
30081;BME280;16902;50.816;12.828;2023-02-11T20:37:01;99408.47;;;3.22;100.00
30081;BME280;16902;50.816;12.828;2023-02-11T20:42:03;99407.38;;;3.26;100.00
30081;BME280;16902;50.816;12.828;2023-02-11T20:47:05;99411.22;;;3.33;100.00
30081;BME280;16902;50.816;12.828;2023-02-11T20:52:07;99425.84;;;3.33;100.00
30081;BME280;16902;50.816;12.828;2023-02-11T20:57:08;99416.47;;;3.32;100.00
30081;BME280;16902;50.816;12.828;2023-02-11T21:02:10;99400.06;;;3.47;100.00
30081;BME280;16902;50.816;12.828;2023-02-11T21:07:14;99401.53;;;3.51;100.00
30081;BME280;16902;50.816;12.828;2023-02-11T21:12:16;99411.66;;;3.54;100.00
30081;BME280;16902;50.816;12.828;2023-02-11T21:17:18;99408.06;;;3.57;100.00
30081;BME280;16902;50.816;12.828;2023-02-11T21:22:20;99425.09;;;3.59;100.00
30081;BME280;16902;50.816;12.828;2023-02-11T21:27:21;99421.56;;;3.60;100.00
30081;BME280;16902;50.816;12.828;2023-02-11T21:32:24;99436.22;;;3.60;100.00
30081;BME280;16902;50.816;12.828;2023-02-11T21:37:26;99437.69;;;3.64;100.00
30081;BME280;16902;50.816;12.828;2023-02-11T21:42:28;99443.47;;;3.68;100.00
30081;BME280;16902;50.816;12.828;2023-02-11T21:47:30;99436.66;;;3.67;100.00
30081;BME280;16902;50.816;12.828;2023-02-11T21:52:32;99452.84;;;3.69;100.00
30081;BME280;16902;50.816;12.828;2023-02-11T21:57:34;99460.28;;;3.73;100.00
30081;BME280;16902;50.816;12.828;2023-02-11T22:02:39;99458.25;;;3.78;100.00
30081;BME280;16902;50.816;12.828;2023-02-11T22:07:41;99452.81;;;3.83;100.00
30081;BME280;16902;50.816;12.828;2023-02-11T22:12:42;99459.22;;;3.90;100.00
30081;BME280;16902;50.816;12.828;2023-02-11T22:17:44;99470.19;;;3.94;100.00
30081;BME280;16902;50.816;12.828;2023-02-11T22:22:46;99473.41;;;3.97;100.00
30081;BME280;16902;50.816;12.828;2023-02-11T22:27:48;99481.03;;;3.99;100.00
30081;BME280;16902;50.816;12.828;2023-02-11T22:32:50;99488.22;;;3.94;100.00
30081;BME280;16902;50.816;12.828;2023-02-11T22:37:52;99494.09;;;3.96;100.00
30081;BME280;16902;50.816;12.828;2023-02-11T22:42:53;99499.06;;;3.99;100.00
30081;BME280;16902;50.816;12.828;2023-02-11T22:47:55;99499.59;;;4.04;100.00
30081;BME280;16902;50.816;12.828;2023-02-11T22:52:57;99488.47;;;4.03;100.00
30081;BME280;16902;50.816;12.828;2023-02-11T22:57:59;99504.75;;;4.04;100.00
30081;BME280;16902;50.816;12.828;2023-02-11T23:03:02;99502.19;;;4.04;100.00
30081;BME280;16902;50.816;12.828;2023-02-11T23:08:06;99507.06;;;4.08;100.00
30081;BME280;16902;50.816;12.828;2023-02-11T23:13:08;99515.63;;;4.09;100.00
30081;BME280;16902;50.816;12.828;2023-02-11T23:18:13;99513.97;;;4.08;100.00
30081;BME280;16902;50.816;12.828;2023-02-11T23:23:15;99513.97;;;4.08;100.00
30081;BME280;16902;50.816;12.828;2023-02-11T23:28:17;99513.78;;;4.11;100.00
30081;BME280;16902;50.816;12.828;2023-02-11T23:33:19;99520.59;;;4.12;100.00
30081;BME280;16902;50.816;12.828;2023-02-11T23:38:21;99525.53;;;4.15;100.00
30081;BME280;16902;50.816;12.828;2023-02-11T23:43:23;99525.53;;;4.15;100.00
30081;BME280;16902;50.816;12.828;2023-02-11T23:48:25;99524.53;;;4.18;100.00
30081;BME280;16902;50.816;12.828;2023-02-11T23:53:28;99526.00;;;4.22;100.00
30081;BME280;16902;50.816;12.828;2023-02-11T23:58:30;99529.41;;;4.22;100.00
